createdAt,value
2023-02-21T00:00:10.796Z,11.93
2023-02-21T00:03:26.378Z,18.50
2023-02-21T00:06:34.393Z,12.37
2023-02-21T00:09:42.970Z,11.52
2023-02-21T00:12:51.461Z,10.30
2023-02-21T00:15:59.939Z,10.15
2023-02-21T00:19:08.358Z,11.23
2023-02-21T00:22:23.323Z,11.17
2023-02-21T00:25:31.380Z,9.15
2023-02-21T00:28:46.329Z,9.50
2023-02-21T00:31:47.957Z,9.65
2023-02-21T00:35:02.372Z,10.03
2023-02-21T00:38:05.041Z,10.73
2023-02-21T00:41:19.365Z,10.27
2023-02-21T00:44:21.053Z,9.95
2023-02-21T00:47:35.309Z,9.07
2023-02-21T00:50:44.068Z,12.37
2023-02-21T00:53:52.339Z,8.87
2023-02-21T00:57:00.881Z,9.02
2023-02-21T01:00:10.342Z,9.40
2023-02-21T01:03:25.357Z,9.45
2023-02-21T01:06:33.346Z,9.70
2023-02-21T01:09:48.361Z,10.00
2023-02-21T01:12:56.357Z,8.43
2023-02-21T01:16:13.514Z,9.38
2023-02-21T01:19:28.398Z,8.43
2023-02-21T01:22:37.234Z,9.07
2023-02-21T01:25:45.344Z,10.77
2023-02-21T01:28:53.945Z,10.57
2023-02-21T01:32:02.407Z,11.85
2023-02-21T01:35:17.420Z,8.70
2023-02-21T01:38:26.041Z,8.27
2023-02-21T01:41:34.322Z,10.80
2023-02-21T01:44:53.340Z,12.37
2023-02-21T01:48:08.479Z,12.68
2023-02-21T01:51:14.351Z,8.07
2023-02-21T01:54:32.363Z,8.37
2023-02-21T01:57:48.353Z,7.93
2023-02-21T02:00:50.559Z,7.65
2023-02-21T02:04:08.919Z,13.88
2023-02-21T02:07:17.370Z,11.35
2023-02-21T02:10:30.080Z,6.07
2023-02-21T02:13:54.357Z,7.73
2023-02-21T02:17:38.465Z,8.93
2023-02-21T02:21:14.627Z,7.20
2023-02-21T02:24:44.396Z,7.62
2023-02-21T02:28:06.082Z,6.50
2023-02-21T02:31:39.508Z,8.77
2023-02-21T02:34:52.992Z,8.55
2023-02-21T02:38:26.358Z,6.85
2023-02-21T02:41:40.509Z,13.25
2023-02-21T02:45:07.379Z,8.13
2023-02-21T02:48:23.575Z,8.57
2023-02-21T02:51:41.389Z,7.68
2023-02-21T02:54:50.402Z,7.60
2023-02-21T02:58:00.668Z,7.03
2023-02-21T03:01:26.419Z,9.60
2023-02-21T03:04:59.360Z,7.67
2023-02-21T03:08:26.892Z,7.05
2023-02-21T03:11:54.416Z,6.25
2023-02-21T03:15:03.096Z,5.90
2023-02-21T03:18:27.402Z,9.97
2023-02-21T03:25:26.386Z,7.80
2023-02-21T03:28:43.410Z,3.80
2023-02-21T03:31:49.747Z,5.15
2023-02-21T03:35:04.397Z,3.87
2023-02-21T03:38:19.387Z,5.13
2023-02-21T03:41:27.370Z,4.53
2023-02-21T03:44:42.405Z,5.78
2023-02-21T03:47:44.191Z,3.90
2023-02-21T03:51:00.400Z,3.83
2023-02-21T03:54:08.377Z,4.50
2023-02-21T03:57:17.221Z,2.75
2023-02-21T04:00:26.445Z,5.30
2023-02-21T04:03:41.385Z,4.07
2023-02-21T04:06:49.409Z,5.40
2023-02-21T04:09:58.174Z,3.93
2023-02-21T04:13:06.423Z,5.20
2023-02-21T04:16:22.421Z,2.47
2023-02-21T04:19:37.432Z,4.07
2023-02-21T04:22:54.482Z,4.77
2023-02-21T04:26:09.385Z,4.67
2023-02-21T04:29:17.929Z,4.10
2023-02-21T04:32:32.529Z,4.20
2023-02-21T04:35:40.891Z,6.07
2023-02-21T04:38:55.427Z,4.73
2023-02-21T04:42:10.381Z,4.97
2023-02-21T04:45:18.454Z,4.28
2023-02-21T04:48:33.395Z,4.72
2023-02-21T04:51:35.262Z,4.18
2023-02-21T05:02:38.395Z,3.33
2023-02-21T05:05:53.405Z,6.72
2023-02-21T05:09:02.083Z,4.85
2023-02-21T05:12:16.471Z,4.00
2023-02-21T05:15:18.246Z,4.23
2023-02-21T05:18:32.449Z,5.43
2023-02-21T05:21:40.983Z,4.95
2023-02-21T05:24:49.480Z,4.82
2023-02-21T05:28:04.435Z,3.13
2023-02-21T05:31:13.636Z,3.30
2023-02-21T05:34:28.441Z,6.35
2023-02-21T05:37:31.426Z,3.55
2023-02-21T05:40:48.449Z,4.60
2023-02-21T05:47:48.393Z,9.00
2023-02-21T05:51:22.411Z,3.95
2023-02-21T05:54:31.261Z,5.30
2023-02-21T05:57:44.527Z,3.62
2023-02-21T06:00:53.778Z,6.20
2023-02-21T06:04:08.440Z,4.53
2023-02-21T06:07:16.994Z,7.20
2023-02-21T06:10:31.473Z,4.68
2023-02-21T06:13:39.446Z,4.12
2023-02-21T06:16:55.468Z,4.50
2023-02-21T06:20:03.560Z,4.30
2023-02-21T06:23:19.497Z,5.22
2023-02-21T06:26:28.420Z,3.55
2023-02-21T06:29:43.445Z,4.32
2023-02-21T06:32:51.413Z,4.17
2023-02-21T06:36:12.421Z,5.70
2023-02-21T06:39:22.118Z,4.62
2023-02-21T07:09:23.918Z,6.83
2023-02-21T07:13:11.470Z,3.80
2023-02-21T07:20:18.487Z,5.68
2023-02-21T07:35:42.621Z,5.53
2023-02-21T07:43:21.488Z,6.20
2023-02-21T07:54:24.482Z,7.72
2023-02-21T08:05:44.429Z,3.80
2023-02-21T08:12:31.571Z,5.18
2023-02-21T08:15:39.617Z,3.58
2023-02-21T08:19:30.536Z,6.35
2023-02-21T08:26:39.686Z,4.93
2023-02-21T08:29:51.658Z,6.93
2023-02-21T08:33:08.907Z,5.43
2023-02-21T08:40:31.231Z,3.73
2023-02-21T08:55:16.501Z,5.35
2023-02-21T08:58:25.476Z,4.63
2023-02-21T09:01:50.553Z,8.17
2023-02-21T09:05:14.652Z,6.50
2023-02-21T09:08:35.579Z,4.12
2023-02-21T09:11:44.666Z,5.28
2023-02-21T09:14:53.597Z,3.93
2023-02-21T09:18:02.045Z,5.47
2023-02-21T09:22:01.890Z,4.90
2023-02-21T09:25:53.222Z,3.05
2023-02-21T09:29:46.227Z,5.05
2023-02-21T09:33:08.202Z,4.40
2023-02-21T09:36:42.523Z,3.90
2023-02-21T09:43:37.595Z,4.68
2023-02-21T09:47:04.339Z,5.20
2023-02-21T09:55:04.568Z,4.47
2023-02-21T09:58:22.489Z,3.12
2023-02-21T10:01:46.932Z,4.72
2023-02-21T10:05:22.863Z,3.97
2023-02-21T10:08:51.815Z,4.87
2023-02-21T10:20:09.466Z,3.55
2023-02-21T10:31:56.600Z,5.13
2023-02-21T10:43:43.332Z,6.53
2023-02-21T10:47:23.630Z,4.27
2023-02-21T10:51:10.731Z,6.23
2023-02-21T10:54:23.455Z,6.30
2023-02-21T10:57:34.527Z,4.25
2023-02-21T11:00:53.581Z,5.00
2023-02-21T11:04:13.511Z,5.30
2023-02-21T11:11:47.785Z,6.85
2023-02-21T11:15:17.426Z,6.45
2023-02-21T11:22:47.578Z,3.20
2023-02-21T11:26:07.391Z,5.77
2023-02-21T11:29:29.037Z,4.40
2023-02-21T11:45:10.762Z,7.40
2023-02-21T11:48:20.322Z,4.60
2023-02-21T11:55:56.523Z,4.90
2023-02-21T11:59:57.679Z,3.93
2023-02-21T12:11:39.057Z,8.70
2023-02-21T12:15:20.607Z,4.22
2023-02-21T12:18:45.520Z,3.83
2023-02-21T12:22:21.522Z,7.20
2023-02-21T12:33:39.599Z,5.62
2023-02-21T12:41:21.565Z,4.47
2023-02-21T12:44:42.373Z,4.07
2023-02-21T12:48:05.692Z,4.68
2023-02-21T12:51:54.740Z,5.03
2023-02-21T12:55:12.717Z,5.43
2023-02-21T12:58:36.715Z,4.17
2023-02-21T13:01:50.500Z,7.35
2023-02-21T13:05:06.585Z,8.50
2023-02-21T13:08:22.591Z,7.78
2023-02-21T13:11:48.313Z,6.00
2023-02-21T13:15:02.537Z,6.27
2023-02-21T13:18:26.708Z,5.97
2023-02-21T13:22:11.822Z,5.87
2023-02-21T13:25:47.953Z,8.35
2023-02-21T13:29:33.303Z,5.80
2023-02-21T13:33:31.652Z,5.37
2023-02-21T13:37:01.734Z,4.15
2023-02-21T13:40:53.903Z,5.72
2023-02-21T13:44:14.573Z,6.55
2023-02-21T13:47:26.388Z,3.83
2023-02-21T13:58:44.848Z,3.92
2023-02-21T14:02:23.682Z,5.53
2023-02-21T14:06:18.674Z,5.00
2023-02-21T14:13:59.461Z,4.10
2023-02-21T14:17:21.006Z,5.97
2023-02-21T14:20:26.183Z,4.65
2023-02-21T14:23:56.800Z,4.43
2023-02-21T14:27:41.713Z,4.33
2023-02-21T14:35:44.823Z,2.28
2023-02-21T14:39:14.592Z,2.53
2023-02-21T14:42:44.898Z,5.43
2023-02-21T14:46:29.631Z,4.10
2023-02-21T14:53:56.602Z,3.53
2023-02-21T14:57:31.594Z,3.25
2023-02-21T15:01:10.623Z,5.77
2023-02-21T15:04:37.558Z,3.93
2023-02-21T15:08:18.627Z,8.23
2023-02-21T15:11:31.970Z,4.15
2023-02-21T15:14:54.691Z,3.33
2023-02-21T15:18:08.620Z,7.13
2023-02-21T15:21:31.650Z,4.80
2023-02-21T15:24:46.577Z,3.70
2023-02-21T15:28:02.197Z,3.55
2023-02-21T15:31:15.000Z,4.80
2023-02-21T15:34:41.525Z,4.23
2023-02-21T15:37:57.650Z,3.23
2023-02-21T15:41:52.859Z,3.67
2023-02-21T15:45:30.817Z,5.57
2023-02-21T15:49:02.609Z,4.70
2023-02-21T16:00:32.748Z,6.95
2023-02-21T16:03:56.578Z,4.50
2023-02-21T16:07:22.330Z,4.18
2023-02-21T16:10:28.577Z,3.80
2023-02-21T16:17:45.117Z,4.45
2023-02-21T16:21:08.609Z,6.60
2023-02-21T16:24:27.776Z,5.18
2023-02-21T16:27:50.990Z,5.03
2023-02-21T16:31:03.705Z,3.80
2023-02-21T16:41:49.670Z,3.83
2023-02-21T17:11:29.602Z,3.58
2023-02-21T17:19:47.057Z,4.32
2023-02-21T17:31:00.079Z,3.60
2023-02-21T17:52:22.667Z,5.70
2023-02-21T17:55:31.394Z,4.68
2023-02-21T17:58:39.634Z,3.73
2023-02-21T18:06:24.688Z,5.25
2023-02-21T18:13:20.666Z,5.95
2023-02-21T18:16:29.515Z,6.73
2023-02-21T18:19:40.222Z,7.83
2023-02-21T18:27:28.735Z,6.12
2023-02-21T18:30:37.850Z,8.02
2023-02-21T18:34:07.737Z,6.33
2023-02-21T18:37:16.620Z,10.23
2023-02-21T18:40:27.099Z,6.25
2023-02-21T19:10:27.734Z,8.67
2023-02-21T19:13:49.737Z,7.40
2023-02-21T19:17:07.458Z,8.40
2023-02-21T19:20:12.146Z,11.00
2023-02-21T19:27:34.705Z,8.17
2023-02-21T19:31:03.674Z,9.90
2023-02-21T19:34:22.689Z,8.15
2023-02-21T19:37:56.630Z,8.65
2023-02-21T19:41:05.685Z,9.00
2023-02-21T19:44:55.702Z,9.93
2023-02-21T19:48:04.510Z,8.77
2023-02-21T19:54:40.522Z,11.85
2023-02-21T19:57:58.900Z,10.77
2023-02-21T20:01:43.881Z,8.80
2023-02-21T20:05:10.505Z,16.70
2023-02-21T20:12:16.682Z,9.85
2023-02-21T20:19:30.752Z,7.43
2023-02-21T20:30:17.818Z,8.85
2023-02-21T20:42:29.775Z,5.40
2023-02-21T20:45:44.782Z,4.62
2023-02-21T20:49:22.008Z,6.22
2023-02-21T21:00:30.693Z,16.53
2023-02-21T21:03:39.849Z,13.85
2023-02-21T21:06:48.650Z,14.65
2023-02-21T21:09:57.722Z,17.00
2023-02-21T21:13:06.681Z,13.63
2023-02-21T21:16:15.618Z,14.00
2023-02-21T21:19:35.717Z,14.48
2023-02-21T21:22:37.614Z,12.95
2023-02-21T21:25:52.721Z,13.35
2023-02-21T21:29:07.688Z,9.07
2023-02-21T21:32:13.684Z,8.60
2023-02-21T21:35:28.698Z,5.28
2023-02-21T21:38:43.710Z,6.25
2023-02-21T21:42:01.417Z,6.18
2023-02-21T21:45:12.690Z,5.23
2023-02-21T21:48:21.577Z,6.43
2023-02-21T21:55:55.778Z,6.53
2023-02-21T22:02:26.804Z,5.47
2023-02-21T22:05:38.768Z,6.03
2023-02-21T22:08:53.772Z,7.37
2023-02-21T22:11:55.700Z,5.60
2023-02-21T22:15:13.707Z,6.78
2023-02-21T22:21:49.834Z,6.77
2023-02-21T22:55:36.695Z,6.43
2023-02-21T22:58:46.129Z,6.53
2023-02-21T23:02:29.302Z,8.02
2023-02-21T23:06:26.597Z,5.35
2023-02-21T23:10:10.150Z,5.97
2023-02-21T23:14:07.817Z,6.23
2023-02-21T23:17:56.741Z,6.85
2023-02-21T23:26:40.066Z,6.80
2023-02-21T23:30:16.432Z,6.10
2023-02-21T23:33:51.746Z,6.57
2023-02-21T23:37:23.490Z,6.00
2023-02-21T23:45:07.459Z,7.90
2023-02-21T23:48:39.528Z,16.30
2023-02-21T23:51:53.765Z,6.10
2023-02-21T23:55:03.756Z,5.15
2023-02-21T23:58:40.850Z,8.82
